createdAt,value
2018-08-22T00:01:47.532Z,48.71
2018-08-22T00:04:17.128Z,47.62
2018-08-22T00:06:46.815Z,47.77
2018-08-22T00:09:16.701Z,47.88
2018-08-22T00:11:46.393Z,46.06
2018-08-22T00:14:16.149Z,45.51
2018-08-22T00:16:46.006Z,47.22
2018-08-22T00:19:15.797Z,45.87
2018-08-22T00:21:45.779Z,45.49
2018-08-22T00:24:15.525Z,45.48
2018-08-22T00:26:45.288Z,45.22
2018-08-22T00:29:15.377Z,46.76
2018-08-22T00:31:45.105Z,46.89
2018-08-22T00:34:14.830Z,47.70
2018-08-22T00:36:44.751Z,50.04
2018-08-22T00:39:14.382Z,49.36
2018-08-22T00:41:44.298Z,47.69
2018-08-22T00:44:14.153Z,46.88
2018-08-22T00:46:43.985Z,46.51
2018-08-22T00:49:13.842Z,46.09
2018-08-22T00:51:43.532Z,45.50
2018-08-22T00:54:13.299Z,45.58
2018-08-22T00:56:43.226Z,45.52
2018-08-22T00:59:13.058Z,46.06
2018-08-22T01:01:42.905Z,45.81
2018-08-22T01:04:12.625Z,45.46
2018-08-22T01:06:42.385Z,46.43
2018-08-22T01:09:12.222Z,47.06
2018-08-22T01:11:42.507Z,46.77
2018-08-22T01:14:12.413Z,46.15
2018-08-22T01:16:42.224Z,46.64
2018-08-22T01:19:12.059Z,48.13
2018-08-22T01:21:41.871Z,49.75
2018-08-22T01:24:11.705Z,47.61
2018-08-22T01:26:41.546Z,47.67
2018-08-22T01:29:11.380Z,46.94
2018-08-22T01:31:41.203Z,47.03
2018-08-22T01:34:11.065Z,46.14
2018-08-22T01:36:40.766Z,46.34
2018-08-22T01:39:10.594Z,45.54
2018-08-22T01:41:40.513Z,46.63
2018-08-22T01:44:10.271Z,47.35
2018-08-22T01:46:39.977Z,46.19
2018-08-22T01:49:10.401Z,45.59
2018-08-22T01:51:40.102Z,45.60
2018-08-22T01:54:09.834Z,44.95
2018-08-22T01:56:39.573Z,45.83
2018-08-22T01:59:09.481Z,46.97
2018-08-22T02:01:39.212Z,46.86
2018-08-22T02:04:08.969Z,46.01
2018-08-22T02:06:38.722Z,46.04
2018-08-22T02:09:11.604Z,46.25
2018-08-22T02:11:41.919Z,46.99
2018-08-22T02:14:12.696Z,46.50
2018-08-22T02:16:42.598Z,47.50
2018-08-22T02:19:13.651Z,48.35
2018-08-22T02:21:43.433Z,48.63
2018-08-22T02:24:13.184Z,48.09
2018-08-22T02:26:42.837Z,48.03
2018-08-22T02:29:13.449Z,48.80
2018-08-22T02:31:43.342Z,49.08
2018-08-22T02:34:13.176Z,49.80
2018-08-22T02:36:43.014Z,48.27
2018-08-22T02:39:13.508Z,47.04
2018-08-22T02:41:43.382Z,46.12
2018-08-22T02:44:13.230Z,46.25
2018-08-22T02:46:43.134Z,47.89
2018-08-22T02:49:15.794Z,46.68
2018-08-22T02:51:45.647Z,47.52
2018-08-22T02:54:15.416Z,46.36
2018-08-22T02:56:45.122Z,46.91
2018-08-22T02:59:15.792Z,49.83
2018-08-22T03:01:45.554Z,50.33
2018-08-22T03:04:15.281Z,49.27
2018-08-22T03:06:45.016Z,47.79
2018-08-22T03:09:14.757Z,47.61
2018-08-22T03:11:44.600Z,48.52
2018-08-22T03:14:14.520Z,50.15
2018-08-22T03:16:44.224Z,49.33
2018-08-22T03:19:14.119Z,50.64
2018-08-22T03:21:43.932Z,51.78
2018-08-22T03:24:13.634Z,50.53
2018-08-22T03:26:43.501Z,49.28
2018-08-22T03:29:13.353Z,48.72
2018-08-22T03:31:43.181Z,47.29
2018-08-22T03:34:12.961Z,47.10
2018-08-22T03:36:42.725Z,48.57
2018-08-22T03:39:12.597Z,49.44
2018-08-22T03:41:42.459Z,49.49
2018-08-22T03:44:12.307Z,47.89
2018-08-22T03:46:42.021Z,48.77
2018-08-22T03:49:11.875Z,47.76
2018-08-22T03:51:41.708Z,47.07
2018-08-22T03:54:11.541Z,48.79
2018-08-22T03:56:41.366Z,48.67
2018-08-22T03:59:11.207Z,48.59
2018-08-22T04:01:41.020Z,48.06
2018-08-22T04:04:11.073Z,48.09
2018-08-22T04:06:40.932Z,47.09
2018-08-22T04:09:10.774Z,47.79
2018-08-22T04:11:40.568Z,47.63
2018-08-22T04:14:10.290Z,49.19
2018-08-22T04:16:40.426Z,50.79
2018-08-22T04:19:10.195Z,49.27
2018-08-22T04:21:40.544Z,52.30
2018-08-22T04:24:11.411Z,50.53
2018-08-22T04:26:41.863Z,51.21
2018-08-22T04:29:12.601Z,50.93
2018-08-22T04:31:43.130Z,50.08
2018-08-22T04:34:13.787Z,50.09
2018-08-22T04:36:44.354Z,48.43
2018-08-22T04:39:15.786Z,48.98
2018-08-22T04:41:46.474Z,48.88
2018-08-22T04:44:17.102Z,47.94
2018-08-22T04:46:47.555Z,47.22
2018-08-22T04:49:18.630Z,46.28
2018-08-22T04:51:48.872Z,48.63
2018-08-22T04:54:19.103Z,50.74
2018-08-22T04:56:49.539Z,51.19
2018-08-22T04:59:20.375Z,51.48
2018-08-22T05:01:50.902Z,49.74
2018-08-22T05:04:21.032Z,48.83
2018-08-22T05:06:51.751Z,47.65
2018-08-22T05:09:22.490Z,47.09
2018-08-22T05:11:52.796Z,48.22
2018-08-22T05:14:23.089Z,48.79
2018-08-22T05:16:54.241Z,49.34
2018-08-22T05:19:25.786Z,49.10
2018-08-22T05:21:56.596Z,46.65
2018-08-22T05:24:27.091Z,46.83
2018-08-22T05:26:57.216Z,47.94
2018-08-22T05:29:28.644Z,46.82
2018-08-22T05:31:59.632Z,46.92
2018-08-22T05:34:29.952Z,47.80
2018-08-22T05:36:59.685Z,47.64
2018-08-22T05:39:29.731Z,50.09
2018-08-22T05:41:59.506Z,49.87
2018-08-22T05:44:29.279Z,48.80
2018-08-22T05:46:58.997Z,50.56
2018-08-22T05:49:28.913Z,51.50
2018-08-22T05:51:58.585Z,50.37
2018-08-22T05:54:28.349Z,49.56
2018-08-22T05:56:58.103Z,49.08
2018-08-22T05:59:27.934Z,48.25
2018-08-22T06:01:57.690Z,48.01
2018-08-22T06:04:27.511Z,46.56
2018-08-22T06:06:57.274Z,46.25
2018-08-22T06:09:27.168Z,44.93
2018-08-22T06:11:57.757Z,44.96
2018-08-22T06:14:28.160Z,44.67
2018-08-22T06:16:58.351Z,42.83
2018-08-22T06:19:28.441Z,41.37
2018-08-22T06:21:58.282Z,39.89
2018-08-22T06:24:28.073Z,40.57
2018-08-22T06:26:57.881Z,39.49
2018-08-22T06:29:27.648Z,38.79
2018-08-22T06:31:57.451Z,38.82
2018-08-22T06:34:27.158Z,38.07
2018-08-22T06:36:56.787Z,38.79
2018-08-22T06:39:26.631Z,38.38
2018-08-22T06:41:56.498Z,37.70
2018-08-22T06:44:26.452Z,36.95
2018-08-22T06:46:56.149Z,35.70
2018-08-22T06:49:25.740Z,34.99
2018-08-22T06:51:55.465Z,34.65
2018-08-22T06:54:25.332Z,34.80
2018-08-22T06:56:55.264Z,33.95
2018-08-22T06:59:25.146Z,33.96
2018-08-22T07:01:54.937Z,33.28
2018-08-22T07:04:24.774Z,32.60
2018-08-22T07:06:54.485Z,32.84
2018-08-22T07:09:24.302Z,31.03
2018-08-22T07:11:54.018Z,32.61
2018-08-22T07:14:23.690Z,30.15
2018-08-22T07:16:53.441Z,30.31
2018-08-22T07:19:23.654Z,29.31
2018-08-22T07:21:53.441Z,29.42
2018-08-22T07:24:23.134Z,27.91
2018-08-22T07:26:52.917Z,27.97
2018-08-22T07:29:22.618Z,26.35
2018-08-22T07:31:52.341Z,26.68
2018-08-22T07:34:22.155Z,26.55
2018-08-22T07:36:51.781Z,25.71
2018-08-22T07:39:21.525Z,23.70
2018-08-22T07:41:51.267Z,24.29
2018-08-22T07:44:21.006Z,23.92
2018-08-22T07:46:50.797Z,24.17
2018-08-22T07:49:20.598Z,23.82
2018-08-22T07:51:50.376Z,22.37
2018-08-22T07:54:20.009Z,23.84
2018-08-22T07:56:49.786Z,22.35
2018-08-22T07:59:21.004Z,22.47
2018-08-22T08:01:50.955Z,22.74
2018-08-22T08:04:21.272Z,20.53
2018-08-22T08:06:51.028Z,20.81
2018-08-22T08:09:22.080Z,21.16
2018-08-22T08:11:51.670Z,20.94
2018-08-22T08:14:21.397Z,22.22
2018-08-22T08:16:51.294Z,23.29
2018-08-22T08:19:21.620Z,22.07
2018-08-22T08:21:51.846Z,21.49
2018-08-22T08:24:22.275Z,21.21
2018-08-22T08:26:52.121Z,21.11
2018-08-22T08:29:22.822Z,21.36
2018-08-22T08:31:52.482Z,20.51
2018-08-22T08:34:22.360Z,19.91
2018-08-22T08:36:52.248Z,19.98
2018-08-22T08:39:22.534Z,18.51
2018-08-22T08:41:52.270Z,19.14
2018-08-22T08:44:22.080Z,20.22
2018-08-22T08:46:52.018Z,18.94
2018-08-22T08:49:21.802Z,19.21
2018-08-22T08:51:59.271Z,19.21
2018-08-22T08:54:29.567Z,18.38
2018-08-22T08:56:59.615Z,18.98
2018-08-22T08:59:29.939Z,18.25
2018-08-22T09:01:59.581Z,17.71
2018-08-22T09:04:29.464Z,17.65
2018-08-22T09:06:59.562Z,17.10
2018-08-22T09:09:29.254Z,18.03
2018-08-22T09:12:00.961Z,16.23
2018-08-22T09:14:31.124Z,15.97
2018-08-22T09:17:01.068Z,15.33
2018-08-22T09:19:31.810Z,15.79
2018-08-22T09:22:02.078Z,16.57
2018-08-22T09:24:31.919Z,16.55
2018-08-22T09:27:01.711Z,15.41
2018-08-22T09:29:31.630Z,15.66
2018-08-22T09:32:01.402Z,16.29
2018-08-22T09:34:31.145Z,15.46
2018-08-22T09:37:00.952Z,15.38
2018-08-22T09:39:30.687Z,15.95
2018-08-22T09:42:00.616Z,15.88
2018-08-22T09:44:30.426Z,15.33
2018-08-22T09:47:00.423Z,15.08
2018-08-22T09:49:30.349Z,14.09
2018-08-22T09:52:00.144Z,15.21
2018-08-22T09:54:29.957Z,16.37
2018-08-22T09:57:01.843Z,15.10
2018-08-22T09:59:31.700Z,15.74
2018-08-22T10:02:01.545Z,15.29
2018-08-22T10:04:31.401Z,15.33
2018-08-22T10:07:01.282Z,14.45
2018-08-22T10:09:31.108Z,13.42
2018-08-22T10:12:01.117Z,14.08
2018-08-22T10:14:30.919Z,14.66
2018-08-22T10:17:00.735Z,14.48
2018-08-22T10:19:30.616Z,13.89
2018-08-22T10:22:00.370Z,14.33
2018-08-22T10:24:30.456Z,13.71
2018-08-22T10:27:00.384Z,14.39
2018-08-22T10:29:30.163Z,14.72
2018-08-22T10:31:59.951Z,15.94
2018-08-22T10:34:30.155Z,14.75
2018-08-22T10:36:59.981Z,15.42
2018-08-22T10:39:29.891Z,15.11
2018-08-22T10:41:59.789Z,13.15
2018-08-22T10:44:30.672Z,13.69
2018-08-22T10:47:01.400Z,14.43
2018-08-22T10:49:32.064Z,14.43
2018-08-22T10:52:02.559Z,13.02
2018-08-22T10:54:32.414Z,13.45
2018-08-22T10:57:02.147Z,14.07
2018-08-22T10:59:33.824Z,13.27
2018-08-22T11:02:04.448Z,14.11
2018-08-22T11:04:34.252Z,12.07
2018-08-22T11:07:04.157Z,13.86
2018-08-22T11:09:34.221Z,13.29
2018-08-22T11:12:04.096Z,14.21
2018-08-22T11:14:33.918Z,15.02
2018-08-22T11:17:03.716Z,15.49
2018-08-22T11:19:34.416Z,15.68
2018-08-22T11:22:14.906Z,12.94
2018-08-22T11:24:55.328Z,12.48
2018-08-22T11:27:35.656Z,12.15
2018-08-22T11:30:19.395Z,12.97
2018-08-22T11:32:59.767Z,13.42
2018-08-22T11:35:27.802Z,14.74
2018-08-22T11:37:57.584Z,13.17
2018-08-22T11:40:28.251Z,13.08
2018-08-22T11:42:57.949Z,12.10
2018-08-22T11:45:27.909Z,11.16
2018-08-22T11:47:57.776Z,10.73
2018-08-22T11:50:28.005Z,10.86
2018-08-22T11:52:57.943Z,13.75
2018-08-22T11:55:27.818Z,10.89
2018-08-22T11:57:57.611Z,10.62
2018-08-22T12:00:27.377Z,10.52
2018-08-22T12:02:57.312Z,12.08
2018-08-22T12:05:27.105Z,12.31
2018-08-22T12:07:56.838Z,12.72
2018-08-22T12:10:30.837Z,13.76
2018-08-22T12:13:03.155Z,14.46
2018-08-22T12:15:33.586Z,14.98
2018-08-22T12:18:03.327Z,15.40
2018-08-22T12:20:33.420Z,14.06
2018-08-22T12:23:03.329Z,13.58
2018-08-22T12:25:34.408Z,12.54
2018-08-22T12:28:04.971Z,14.39
2018-08-22T12:30:34.981Z,13.51
2018-08-22T12:33:04.742Z,12.28
2018-08-22T12:35:34.523Z,12.08
2018-08-22T12:38:04.496Z,13.38
2018-08-22T12:40:34.182Z,13.74
2018-08-22T12:43:03.920Z,13.31
2018-08-22T12:45:33.697Z,14.61
2018-08-22T12:48:03.473Z,13.77
2018-08-22T12:50:36.493Z,12.87
2018-08-22T12:53:06.714Z,12.97
2018-08-22T12:55:36.267Z,14.10
2018-08-22T12:58:05.982Z,12.77
2018-08-22T13:00:36.578Z,13.88
2018-08-22T13:03:06.396Z,12.70
2018-08-22T13:05:36.338Z,14.80
2018-08-22T13:08:06.193Z,15.09
2018-08-22T13:10:36.082Z,14.40
2018-08-22T13:13:05.965Z,14.55
2018-08-22T13:15:35.659Z,14.31
2018-08-22T13:18:05.498Z,14.36
2018-08-22T13:20:35.339Z,16.77
2018-08-22T13:23:04.984Z,15.72
2018-08-22T13:25:34.696Z,16.08
2018-08-22T13:28:04.902Z,16.80
2018-08-22T13:30:34.578Z,16.22
2018-08-22T13:33:04.379Z,17.35
2018-08-22T13:35:34.291Z,18.08
2018-08-22T13:38:04.783Z,17.84
2018-08-22T13:43:13.237Z,18.97
2018-08-22T13:45:42.971Z,18.52
2018-08-22T13:48:12.769Z,19.07
2018-08-22T13:50:43.160Z,18.85
2018-08-22T13:53:13.284Z,18.76
2018-08-22T13:55:43.120Z,19.05
2018-08-22T13:58:13.118Z,18.65
2018-08-22T14:00:43.809Z,19.46
2018-08-22T14:03:13.728Z,20.42
2018-08-22T14:05:43.553Z,21.77
2018-08-22T14:08:13.418Z,21.96
2018-08-22T14:10:43.172Z,21.71
2018-08-22T14:13:13.019Z,21.06
2018-08-22T14:15:42.778Z,21.54
2018-08-22T14:18:12.581Z,20.72
2018-08-22T14:20:42.634Z,20.92
2018-08-22T14:23:12.429Z,21.29
2018-08-22T14:25:42.178Z,21.39
2018-08-22T14:28:12.492Z,21.28
2018-08-22T14:30:42.195Z,20.63
2018-08-22T14:33:11.838Z,20.80
2018-08-22T14:35:41.579Z,21.20
2018-08-22T14:38:11.320Z,21.17
2018-08-22T14:40:41.192Z,21.19
2018-08-22T14:43:10.883Z,21.94
2018-08-22T14:45:40.830Z,21.66
2018-08-22T14:48:10.644Z,21.75
2018-08-22T14:50:40.492Z,22.08
2018-08-22T14:53:10.368Z,22.69
2018-08-22T14:55:40.148Z,21.96
2018-08-22T14:58:09.955Z,22.29
2018-08-22T15:00:39.649Z,22.27
2018-08-22T15:03:09.638Z,22.31
2018-08-22T15:05:39.019Z,22.69
2018-08-22T15:08:08.844Z,21.85
2018-08-22T15:10:38.644Z,23.57
2018-08-22T15:13:08.622Z,23.16
2018-08-22T15:15:38.323Z,22.56
2018-08-22T15:18:08.239Z,22.49
2018-08-22T15:20:38.014Z,22.55
2018-08-22T15:23:07.854Z,23.68
2018-08-22T15:25:37.680Z,22.34
2018-08-22T15:28:07.560Z,22.75
2018-08-22T15:30:37.756Z,23.43
2018-08-22T15:33:07.456Z,23.53
2018-08-22T15:35:37.334Z,22.37
2018-08-22T15:38:07.317Z,23.08
2018-08-22T15:40:37.048Z,23.81
2018-08-22T15:43:06.771Z,24.45
2018-08-22T15:45:36.331Z,24.19
2018-08-22T15:48:06.181Z,23.67
2018-08-22T15:50:35.954Z,23.71
2018-08-22T15:53:05.949Z,23.12
2018-08-22T15:55:35.757Z,22.54
2018-08-22T15:58:06.617Z,23.02
2018-08-22T16:00:47.563Z,23.88
2018-08-22T16:03:17.443Z,23.68
2018-08-22T16:05:48.014Z,24.89
2018-08-22T16:08:21.517Z,24.73
2018-08-22T16:10:52.317Z,24.67
2018-08-22T16:13:27.036Z,24.49
2018-08-22T16:15:57.950Z,24.21
2018-08-22T16:18:27.759Z,25.12
2018-08-22T16:20:59.576Z,24.69
2018-08-22T16:23:35.430Z,25.17
2018-08-22T16:26:06.150Z,24.96
2018-08-22T16:28:49.216Z,25.67
2018-08-22T16:31:21.397Z,25.35
2018-08-22T16:33:51.243Z,24.65
2018-08-22T16:36:26.093Z,25.11
2018-08-22T16:38:55.944Z,24.57
2018-08-22T16:41:26.119Z,24.57
2018-08-22T16:43:55.994Z,24.67
2018-08-22T16:46:25.831Z,24.76
2018-08-22T16:48:56.411Z,24.60
2018-08-22T16:51:26.393Z,24.12
2018-08-22T16:54:02.163Z,23.54
2018-08-22T16:56:34.509Z,24.84
2018-08-22T16:59:08.801Z,25.74
2018-08-22T17:01:42.449Z,27.63
2018-08-22T17:04:12.297Z,28.13
2018-08-22T17:06:42.170Z,27.27
2018-08-22T17:09:13.398Z,28.52
2018-08-22T17:11:44.387Z,31.25
2018-08-22T17:14:14.203Z,28.99
2018-08-22T17:16:43.953Z,29.69
2018-08-22T17:19:13.758Z,30.83
2018-08-22T17:21:43.546Z,30.22
2018-08-22T17:24:13.867Z,30.56
2018-08-22T17:26:44.005Z,30.83
2018-08-22T17:29:13.824Z,32.13
2018-08-22T17:31:47.227Z,32.09
2018-08-22T17:34:17.443Z,31.66
2018-08-22T17:36:56.742Z,33.48
2018-08-22T17:39:31.013Z,32.33
2018-08-22T17:42:01.551Z,32.15
2018-08-22T17:44:31.427Z,32.05
2018-08-22T17:47:01.200Z,31.39
2018-08-22T17:49:31.393Z,33.33
2018-08-22T17:52:05.126Z,32.55
2018-08-22T17:54:35.236Z,32.08
2018-08-22T17:57:19.574Z,32.36
2018-08-22T17:59:49.465Z,32.46
2018-08-22T18:02:20.394Z,32.00
2018-08-22T18:05:00.487Z,33.09
2018-08-22T18:07:30.457Z,32.80
2018-08-22T18:10:00.644Z,32.77
2018-08-22T18:12:30.990Z,35.06
2018-08-22T18:15:03.471Z,34.15
2018-08-22T18:17:33.401Z,33.69
2018-08-22T18:20:03.247Z,33.83
2018-08-22T18:22:37.294Z,34.84
2018-08-22T18:25:07.662Z,36.05
2018-08-22T18:27:37.473Z,35.29
2018-08-22T18:30:10.544Z,36.33
2018-08-22T18:32:41.669Z,35.57
2018-08-22T18:35:12.543Z,34.27
2018-08-22T18:37:43.023Z,35.48
2018-08-22T18:40:20.331Z,35.30
2018-08-22T18:42:55.147Z,35.37
2018-08-22T18:45:25.729Z,35.95
2018-08-22T18:47:55.482Z,34.78
2018-08-22T18:50:25.626Z,34.80
2018-08-22T18:52:57.813Z,35.17
2018-08-22T18:55:35.688Z,35.69
2018-08-22T18:58:06.302Z,35.57
2018-08-22T19:00:37.595Z,36.14
2018-08-22T19:03:08.013Z,35.77
2018-08-22T19:05:38.695Z,35.71
2018-08-22T19:08:15.610Z,36.56
2018-08-22T19:10:46.906Z,35.80
2018-08-22T19:13:22.260Z,35.45
2018-08-22T19:15:58.264Z,35.81
2018-08-22T19:18:28.128Z,35.13
2018-08-22T19:21:04.454Z,36.15
2018-08-22T19:26:17.956Z,35.59
2018-08-22T19:28:57.385Z,36.19
2018-08-22T19:31:27.160Z,35.89
2018-08-22T19:33:57.758Z,36.43
2018-08-22T19:36:28.035Z,35.95
2018-08-22T19:38:57.846Z,36.18
2018-08-22T19:41:31.466Z,35.14
2018-08-22T19:44:02.233Z,36.40
2018-08-22T19:46:32.239Z,36.03
2018-08-22T19:49:02.803Z,36.27
2018-08-22T19:51:32.529Z,35.45
2018-08-22T19:54:05.286Z,35.06
2018-08-22T19:56:36.685Z,35.10
2018-08-22T19:59:06.837Z,37.23
2018-08-22T20:01:38.435Z,37.14
2018-08-22T20:04:08.572Z,38.24
2018-08-22T20:06:38.411Z,38.45
2018-08-22T20:09:08.428Z,37.63
2018-08-22T20:11:38.446Z,37.08
2018-08-22T20:14:07.976Z,36.27
2018-08-22T20:16:37.775Z,37.88
2018-08-22T20:19:07.812Z,37.50
2018-08-22T20:21:39.070Z,37.32
2018-08-22T20:24:12.542Z,38.41
2018-08-22T20:26:51.071Z,37.82
2018-08-22T20:29:20.972Z,37.24
2018-08-22T20:31:50.898Z,37.97
2018-08-22T20:34:21.059Z,37.40
2018-08-22T20:36:50.952Z,40.25
2018-08-22T20:39:20.823Z,39.68
2018-08-22T20:41:56.569Z,39.48
2018-08-22T20:44:26.988Z,38.25
2018-08-22T20:46:56.861Z,39.60
2018-08-22T20:49:26.932Z,38.15
2018-08-22T20:51:56.825Z,37.76
2018-08-22T20:54:27.658Z,40.01
2018-08-22T20:57:00.731Z,38.42
2018-08-22T20:59:30.639Z,39.34
2018-08-22T21:02:03.881Z,39.53
2018-08-22T21:04:34.406Z,40.12
2018-08-22T21:07:04.850Z,40.20
2018-08-22T21:09:34.705Z,38.95
2018-08-22T21:12:05.087Z,39.99
2018-08-22T21:14:35.148Z,41.34
2018-08-22T21:17:04.993Z,43.73
2018-08-22T21:19:34.757Z,43.00
2018-08-22T21:22:09.007Z,42.83
2018-08-22T21:24:39.505Z,43.53
2018-08-22T21:27:09.233Z,42.82
2018-08-22T21:29:39.123Z,41.76
2018-08-22T21:32:09.496Z,42.12
2018-08-22T21:34:40.035Z,41.57
2018-08-22T21:37:20.626Z,40.80
2018-08-22T21:39:50.405Z,40.87
2018-08-22T21:42:24.203Z,40.74
2018-08-22T21:44:54.555Z,40.12
2018-08-22T21:47:24.401Z,40.52
2018-08-22T21:49:55.090Z,40.46
2018-08-22T21:52:25.149Z,40.90
2018-08-22T21:54:55.791Z,40.14
2018-08-22T21:57:25.505Z,41.12
2018-08-22T22:00:00.468Z,41.28
2018-08-22T22:02:30.350Z,40.66
2018-08-22T22:05:01.088Z,40.93
2018-08-22T22:07:30.889Z,41.47
2018-08-22T22:10:05.758Z,41.18
2018-08-22T22:12:37.635Z,40.79
2018-08-22T22:15:08.418Z,41.26
2018-08-22T22:17:38.340Z,40.86
2018-08-22T22:20:08.219Z,41.54
2018-08-22T22:22:38.068Z,42.82
2018-08-22T22:25:09.028Z,44.45
2018-08-22T22:27:38.986Z,45.08
2018-08-22T22:30:08.866Z,45.28
2018-08-22T22:32:38.742Z,46.06
2018-08-22T22:35:08.907Z,44.99
2018-08-22T22:37:38.720Z,44.69
2018-08-22T22:40:08.634Z,42.70
2018-08-22T22:42:38.912Z,43.33
2018-08-22T22:45:08.740Z,45.80
2018-08-22T22:47:38.511Z,45.75
2018-08-22T22:50:08.415Z,46.33
2018-08-22T22:52:43.412Z,46.37
2018-08-22T22:55:14.511Z,46.08
2018-08-22T22:57:44.975Z,45.45
2018-08-22T23:00:16.270Z,46.03
2018-08-22T23:02:46.992Z,45.35
2018-08-22T23:05:17.244Z,45.18
2018-08-22T23:07:47.074Z,44.37
2018-08-22T23:10:16.891Z,44.24
2018-08-22T23:12:47.803Z,43.49
2018-08-22T23:15:22.548Z,44.25
2018-08-22T23:17:54.381Z,43.70
2018-08-22T23:20:30.946Z,43.96
2018-08-22T23:23:00.777Z,43.13
2018-08-22T23:25:31.425Z,42.44
2018-08-22T23:28:01.246Z,42.29
2018-08-22T23:30:38.116Z,43.37
2018-08-22T23:33:08.394Z,44.03
2018-08-22T23:35:39.207Z,43.22
2018-08-22T23:38:17.602Z,43.07
2018-08-22T23:40:48.877Z,42.59
2018-08-22T23:43:18.678Z,43.09
2018-08-22T23:45:55.269Z,42.77
2018-08-22T23:48:30.257Z,44.74
2018-08-22T23:51:05.811Z,44.05
2018-08-22T23:53:41.232Z,45.99
2018-08-22T23:56:19.475Z,46.54
2018-08-22T23:58:50.135Z,46.80
